Terminal Aerodrome Forecast
Issued by NWS

Home | Current Version | Previous Version | Graphics & Text | Print | Product List | Glossary On
Versions: 1 2 3 4 5 6 7 8 9 10 11 12 13 14 15 16 17 18 19 20
000
FTUS43 KGRB 232300
TAFCWA
TAF
KCWA 232326Z 2400/2424 19004KT P6SM SCT070 SCT100
     FM240900 12003KT P6SM SKC
     FM241500 14010KT P6SM SCT250
      AMD LTD TO CLD VIS AND WIND 2403/2411=

USA.gov is the U.S. government's official web portal to all federal, state and local government web resources and services.